Time;durP1;ratioP1;P1;durP2;ratioP2;P2;SDS_P1;SDS_P2;PMS_P1;PMS_P2;Temp;Humidity;BMP_temperature;BMP_pressure;BME280_temperature;BME280_humidity;BME280_pressure;Samples;Min_cycle;Max_cycle;Signal;HPM_P1;HPM_P2
2022/06/30 00:01:27;;;;;;;6.40;4.85;;;20.20;99.90;;;;;;4989350;28;20104;-71
2022/06/30 00:03:52;;;;;;;5.70;4.65;;;20.20;99.90;;;;;;4971546;28;20109;-71
2022/06/30 00:06:18;;;;;;;5.95;4.65;;;20.10;99.90;;;;;;4990392;28;20559;-71
2022/06/30 00:08:44;;;;;;;5.82;4.95;;;20.10;99.90;;;;;;4988744;28;20247;-71
2022/06/30 00:11:10;;;;;;;8.98;4.93;;;20.10;99.90;;;;;;4990138;28;20128;-70
2022/06/30 00:13:37;;;;;;;5.22;4.72;;;20.10;99.90;;;;;;4986659;28;20034;-70
2022/06/30 00:16:04;;;;;;;5.80;4.88;;;20.00;99.90;;;;;;5006250;28;20045;-70
2022/06/30 00:18:30;;;;;;;6.68;4.88;;;19.90;99.90;;;;;;5005547;28;20061;-70
2022/06/30 00:20:56;;;;;;;5.45;4.95;;;19.80;99.90;;;;;;4990386;28;20045;-71
2022/06/30 00:23:22;;;;;;;7.28;4.90;;;19.80;99.90;;;;;;4989033;28;20127;-70
2022/06/30 00:25:48;;;;;;;7.22;5.20;;;19.80;99.90;;;;;;4990808;28;20103;-70
2022/06/30 00:28:14;;;;;;;5.85;4.97;;;19.70;99.90;;;;;;4988743;28;20508;-70
2022/06/30 00:30:39;;;;;;;8.60;5.20;;;19.60;99.90;;;;;;5005909;28;20122;-71
2022/06/30 00:33:05;;;;;;;7.18;4.90;;;19.50;99.90;;;;;;4987730;28;20249;-70
2022/06/30 00:35:31;;;;;;;5.25;4.75;;;19.50;99.90;;;;;;4989906;28;20566;-71
2022/06/30 00:37:56;;;;;;;5.55;5.05;;;19.60;99.90;;;;;;4973006;28;20041;-71
2022/06/30 00:40:22;;;;;;;6.18;4.50;;;19.60;99.90;;;;;;5006418;28;20042;-70
2022/06/30 00:42:50;;;;;;;6.20;4.68;;;19.50;99.90;;;;;;5004576;28;20705;-71
2022/06/30 00:45:16;;;;;;;7.75;5.18;;;19.60;99.90;;;;;;4981715;28;20054;-70
2022/06/30 00:47:42;;;;;;;6.15;4.60;;;19.60;99.90;;;;;;5006595;28;20565;-70
2022/06/30 00:50:08;;;;;;;6.78;4.57;;;19.60;99.90;;;;;;4971827;28;20137;-71
2022/06/30 00:52:36;;;;;;;5.47;4.20;;;19.60;99.90;;;;;;5005222;28;20034;-71
2022/06/30 00:55:06;;;;;;;6.47;4.38;;;19.60;99.90;;;;;;4987991;28;20128;-71
2022/06/30 00:57:34;;;;;;;5.57;4.38;;;19.50;99.90;;;;;;4995156;28;20049;-70
2022/06/30 01:00:05;;;;;;;5.22;4.50;;;19.50;99.90;;;;;;4998302;28;20072;-70
2022/06/30 01:02:33;;;;;;;5.53;4.22;;;19.50;99.90;;;;;;4987447;28;20052;-71
2022/06/30 01:05:00;;;;;;;4.50;4.10;;;19.50;99.90;;;;;;5004435;28;20091;-70
2022/06/30 01:07:27;;;;;;;5.88;4.35;;;19.40;99.90;;;;;;4988458;28;20041;-71
2022/06/30 01:12:44;;;;;;;5.50;4.25;;;19.40;99.90;;;;;;5003056;28;20058;-71
2022/06/30 01:15:15;;;;;;;6.03;4.25;;;19.30;99.90;;;;;;4987025;28;20038;-71
2022/06/30 01:17:42;;;;;;;6.32;4.88;;;19.30;99.90;;;;;;4987507;28;20532;-72
2022/06/30 01:20:09;;;;;;;5.80;4.63;;;19.30;99.90;;;;;;5004961;28;20069;-71
2022/06/30 01:22:35;;;;;;;6.00;4.72;;;19.30;99.90;;;;;;4987144;28;20838;-71
2022/06/30 01:25:02;;;;;;;7.43;4.28;;;19.20;99.90;;;;;;5004699;28;20050;-71
2022/06/30 01:27:28;;;;;;;6.78;4.95;;;19.20;99.90;;;;;;5004763;28;20057;-71
2022/06/30 01:29:54;;;;;;;6.25;4.32;;;19.20;99.90;;;;;;4989775;28;20042;-71
2022/06/30 01:32:20;;;;;;;5.55;4.68;;;19.20;99.90;;;;;;4987269;28;20029;-71
2022/06/30 01:34:45;;;;;;;7.25;5.28;;;19.20;99.90;;;;;;4988456;28;20037;-70
2022/06/30 01:37:11;;;;;;;7.15;4.70;;;19.10;99.90;;;;;;4972049;28;20107;-70
2022/06/30 01:39:37;;;;;;;5.88;4.93;;;19.10;99.90;;;;;;4986446;28;20057;-72
2022/06/30 01:42:03;;;;;;;6.05;4.80;;;19.10;99.90;;;;;;4987792;28;20045;-70
2022/06/30 01:44:29;;;;;;;8.68;5.03;;;19.00;99.90;;;;;;4988327;28;20055;-71
2022/06/30 01:46:55;;;;;;;7.25;4.82;;;19.00;99.90;;;;;;4987382;28;20707;-71
2022/06/30 01:49:21;;;;;;;6.22;4.82;;;19.00;99.90;;;;;;5005213;28;20046;-71
2022/06/30 01:51:47;;;;;;;5.93;4.65;;;18.90;99.90;;;;;;4986255;28;20069;-71
2022/06/30 01:54:12;;;;;;;6.07;4.90;;;18.90;99.90;;;;;;4952960;28;20560;-71
2022/06/30 01:56:39;;;;;;;5.47;4.68;;;18.80;99.90;;;;;;5002991;28;20565;-71
2022/06/30 01:59:05;;;;;;;5.68;4.80;;;18.80;99.90;;;;;;4988179;28;20117;-71
2022/06/30 02:01:32;;;;;;;5.72;4.75;;;18.80;99.90;;;;;;4985469;28;20041;-71
2022/06/30 02:06:46;;;;;;;5.63;4.63;;;18.80;99.90;;;;;;5004431;28;20112;-71
2022/06/30 02:09:12;;;;;;;6.18;4.90;;;18.70;99.90;;;;;;4988273;28;21051;-71
2022/06/30 02:11:37;;;;;;;6.72;5.13;;;18.70;99.90;;;;;;4989458;28;20107;-70
2022/06/30 02:14:04;;;;;;;7.90;5.10;;;18.70;99.90;;;;;;4987965;28;20080;-70
2022/06/30 02:16:30;;;;;;;7.25;5.28;;;18.70;99.90;;;;;;4973878;28;20053;-70
2022/06/30 02:18:56;;;;;;;6.07;4.80;;;18.60;99.90;;;;;;4988301;28;20041;-70
2022/06/30 02:21:22;;;;;;;6.28;5.38;;;18.60;99.90;;;;;;4985747;28;20045;-70
2022/06/30 02:23:48;;;;;;;7.47;4.47;;;18.60;99.90;;;;;;4971937;28;20064;-69
2022/06/30 02:26:14;;;;;;;6.05;5.20;;;18.60;99.90;;;;;;4986698;28;20119;-70
2022/06/30 02:28:39;;;;;;;6.80;5.05;;;18.50;99.90;;;;;;4987747;28;20052;-70
2022/06/30 02:31:05;;;;;;;6.57;4.90;;;18.50;99.90;;;;;;4985061;28;20575;-70
2022/06/30 02:33:31;;;;;;;5.97;4.35;;;18.50;99.90;;;;;;4987787;28;20129;-71
2022/06/30 02:35:57;;;;;;;5.03;4.53;;;18.50;99.90;;;;;;5002237;28;20038;-71
2022/06/30 02:38:22;;;;;;;7.13;4.45;;;18.50;99.90;;;;;;4987788;28;20492;-71
2022/06/30 02:40:48;;;;;;;6.20;5.43;;;18.50;99.90;;;;;;4998564;28;20700;-71
2022/06/30 02:43:14;;;;;;;5.68;5.03;;;18.50;99.90;;;;;;4984685;28;20045;-71
2022/06/30 02:45:40;;;;;;;5.15;4.40;;;18.40;99.90;;;;;;4983366;28;20045;-71
2022/06/30 02:48:05;;;;;;;4.95;4.43;;;18.40;99.90;;;;;;4971168;28;20690;-72
2022/06/30 02:50:31;;;;;;;7.10;4.40;;;18.40;99.90;;;;;;5001822;28;20081;-72
2022/06/30 02:53:00;;;;;;;5.13;4.60;;;18.40;99.90;;;;;;4987321;28;20428;-71
2022/06/30 02:55:26;;;;;;;5.88;4.80;;;18.40;99.90;;;;;;4987201;28;20149;-71
2022/06/30 02:57:52;;;;;;;5.68;4.97;;;18.40;99.90;;;;;;5000604;28;20124;-71
2022/06/30 03:00:18;;;;;;;6.90;5.05;;;18.30;99.90;;;;;;4985973;28;20038;-71
2022/06/30 03:02:44;;;;;;;5.65;4.80;;;18.30;99.90;;;;;;4987074;28;20501;-71
2022/06/30 03:05:10;;;;;;;5.63;4.60;;;18.30;99.90;;;;;;4986003;28;20097;-72
2022/06/30 03:07:35;;;;;;;6.43;4.43;;;18.30;99.90;;;;;;4986614;28;20046;-71
2022/06/30 03:10:01;;;;;;;6.13;4.72;;;18.30;99.90;;;;;;4970033;28;20061;-71
2022/06/30 03:12:28;;;;;;;7.65;5.18;;;18.20;99.90;;;;;;5003925;28;20171;-70
2022/06/30 03:14:54;;;;;;;6.03;4.70;;;18.20;99.90;;;;;;4989896;28;20057;-71
2022/06/30 03:17:20;;;;;;;5.90;5.28;;;18.20;99.90;;;;;;4985661;28;20575;-72
2022/06/30 03:19:46;;;;;;;7.63;5.07;;;18.20;99.90;;;;;;4988431;28;20550;-71
2022/06/30 03:22:12;;;;;;;6.53;5.82;;;18.20;99.90;;;;;;4987371;28;20570;-72
2022/06/30 03:24:38;;;;;;;6.00;4.88;;;18.20;99.90;;;;;;5002963;28;20050;-72
2022/06/30 03:27:04;;;;;;;6.55;5.25;;;18.20;99.90;;;;;;4969444;28;20536;-71
2022/06/30 03:29:30;;;;;;;5.47;4.78;;;18.10;99.90;;;;;;5003201;28;20049;-72
2022/06/30 03:31:56;;;;;;;8.75;5.30;;;18.10;99.90;;;;;;4971270;28;20433;-72
2022/06/30 03:34:21;;;;;;;5.57;4.80;;;18.10;99.90;;;;;;4974587;28;20565;-72
2022/06/30 03:36:47;;;;;;;6.32;5.15;;;18.10;99.90;;;;;;5006303;28;20128;-72
2022/06/30 03:39:13;;;;;;;6.25;4.97;;;18.10;99.90;;;;;;5008310;28;20397;-72
2022/06/30 03:41:39;;;;;;;5.43;4.78;;;18.10;99.90;;;;;;4990896;28;20046;-71
2022/06/30 03:44:05;;;;;;;7.95;5.28;;;18.00;99.90;;;;;;4989885;28;20693;-71
2022/06/30 03:46:30;;;;;;;7.47;5.00;;;18.00;99.90;;;;;;4993940;28;20104;-72
2022/06/30 03:48:57;;;;;;;5.30;4.80;;;18.00;99.90;;;;;;4976145;28;20125;-71
2022/06/30 03:51:23;;;;;;;5.90;4.82;;;18.00;99.90;;;;;;4987107;28;20133;-72
2022/06/30 03:53:48;;;;;;;6.88;5.30;;;18.00;99.90;;;;;;4973234;28;20037;-71
2022/06/30 03:56:14;;;;;;;5.97;4.70;;;18.00;99.90;;;;;;4986934;28;20068;-71
2022/06/30 03:58:40;;;;;;;6.15;4.82;;;18.00;99.90;;;;;;5006278;28;20052;-71
2022/06/30 04:01:06;;;;;;;7.00;5.28;;;18.00;99.90;;;;;;4974389;28;20049;-71
2022/06/30 04:03:32;;;;;;;5.85;4.80;;;18.00;99.90;;;;;;4968195;28;20046;-71
2022/06/30 04:05:57;;;;;;;5.80;4.95;;;18.00;99.90;;;;;;4974419;28;20428;-71
2022/06/30 04:08:23;;;;;;;5.30;4.80;;;18.00;99.90;;;;;;4989456;28;20065;-72
2022/06/30 04:10:49;;;;;;;7.78;5.50;;;18.00;99.90;;;;;;5006638;28;20041;-72
2022/06/30 04:13:15;;;;;;;6.45;4.75;;;18.00;99.90;;;;;;5008424;28;20064;-72
2022/06/30 04:15:41;;;;;;;5.90;5.30;;;18.00;99.90;;;;;;5007512;28;20056;-72
2022/06/30 04:18:07;;;;;;;6.10;5.50;;;18.00;99.90;;;;;;4983751;28;20054;-71
2022/06/30 04:20:33;;;;;;;6.00;5.40;;;18.10;99.90;;;;;;4991132;28;20111;-72
2022/06/30 04:22:58;;;;;;;7.93;5.18;;;18.10;99.90;;;;;;5008630;28;20042;-71
2022/06/30 04:25:24;;;;;;;6.07;4.78;;;18.10;99.90;;;;;;5007876;28;20088;-72
2022/06/30 04:27:54;;;;;;;7.57;4.78;;;18.10;99.90;;;;;;4991350;28;20760;-72
2022/06/30 04:33:06;;;;;;;6.80;4.90;;;18.10;99.90;;;;;;5007375;28;20042;-71
2022/06/30 04:35:31;;;;;;;5.78;5.15;;;18.20;99.90;;;;;;5007797;28;20053;-72
2022/06/30 04:38:01;;;;;;;6.65;5.20;;;18.20;99.90;;;;;;5006647;28;20057;-71
2022/06/30 04:43:11;;;;;;;6.70;5.15;;;18.20;99.90;;;;;;5006991;28;20136;-72
2022/06/30 04:45:37;;;;;;;7.22;5.00;;;18.30;99.90;;;;;;4990801;28;20333;-71
2022/06/30 04:48:03;;;;;;;5.80;5.20;;;18.30;99.90;;;;;;4990354;28;20053;-71
2022/06/30 04:50:29;;;;;;;6.55;5.65;;;18.30;99.90;;;;;;4973775;28;20055;-71
2022/06/30 04:52:55;;;;;;;6.38;5.15;;;18.40;99.90;;;;;;4990530;28;20497;-72
2022/06/30 04:55:21;;;;;;;6.20;5.13;;;18.40;99.90;;;;;;4989649;28;20037;-71
2022/06/30 04:57:47;;;;;;;6.38;5.50;;;18.40;99.90;;;;;;5007230;28;20722;-72
2022/06/30 05:00:13;;;;;;;6.95;5.32;;;18.40;99.90;;;;;;5005635;28;20050;-71
2022/06/30 05:02:39;;;;;;;7.40;5.47;;;18.50;99.90;;;;;;4989255;28;20042;-71
2022/06/30 05:05:05;;;;;;;6.10;5.50;;;18.50;99.90;;;;;;4975191;28;20108;-71
2022/06/30 05:07:31;;;;;;;8.02;5.05;;;18.60;99.90;;;;;;5005119;28;20050;-71
2022/06/30 05:09:57;;;;;;;6.03;5.43;;;18.60;99.90;;;;;;5006298;28;20081;-72
2022/06/30 05:12:23;;;;;;;6.15;5.53;;;18.60;99.90;;;;;;5005010;28;20042;-72
2022/06/30 05:14:48;;;;;;;7.38;5.15;;;18.60;99.90;;;;;;4987717;28;20073;-72
2022/06/30 05:17:14;;;;;;;6.63;5.10;;;18.70;99.90;;;;;;4988147;28;20034;-71
2022/06/30 05:19:40;;;;;;;6.72;5.70;;;18.70;99.90;;;;;;4987976;28;20034;-71
2022/06/30 05:22:06;;;;;;;5.97;5.38;;;18.70;99.90;;;;;;5003880;28;20146;-71
2022/06/30 05:27:16;;;;;;;6.95;5.72;;;18.80;99.90;;;;;;5004465;28;20498;-71
2022/06/30 05:29:42;;;;;;;6.30;5.70;;;18.90;99.90;;;;;;4987003;28;20566;-72
2022/06/30 05:32:08;;;;;;;6.10;5.20;;;18.90;99.90;;;;;;4987335;28;20061;-71
2022/06/30 05:34:35;;;;;;;7.80;5.45;;;18.90;99.90;;;;;;5004066;28;20045;-72
2022/06/30 05:37:02;;;;;;;6.10;5.50;;;19.00;99.90;;;;;;4972000;28;20058;-72
2022/06/30 05:39:28;;;;;;;8.05;5.60;;;19.00;99.90;;;;;;4985816;28;20046;-72
2022/06/30 05:41:54;;;;;;;6.78;6.07;;;19.10;99.90;;;;;;5004482;28;20948;-72
2022/06/30 05:44:20;;;;;;;7.75;5.57;;;19.10;99.90;;;;;;5003300;28;20049;-72
2022/06/30 05:46:46;;;;;;;6.65;5.57;;;19.20;99.90;;;;;;4971848;28;20038;-72
2022/06/30 05:49:11;;;;;;;7.05;6.30;;;19.30;99.90;;;;;;5004012;28;20046;-72
2022/06/30 05:51:37;;;;;;;7.45;6.75;;;19.30;99.90;;;;;;4985984;28;20131;-72
2022/06/30 05:54:03;;;;;;;6.22;5.63;;;19.30;99.90;;;;;;4970702;28;20513;-72
2022/06/30 05:56:29;;;;;;;7.15;6.05;;;19.40;99.90;;;;;;5003816;28;20056;-72
2022/06/30 05:58:55;;;;;;;7.53;5.82;;;19.50;99.90;;;;;;5002687;28;20050;-72
2022/06/30 06:01:21;;;;;;;6.78;5.93;;;19.50;99.90;;;;;;4988789;28;20041;-72
2022/06/30 06:03:46;;;;;;;7.05;6.38;;;19.60;99.90;;;;;;4972246;28;20505;-72
2022/06/30 06:06:12;;;;;;;7.40;6.32;;;19.70;99.90;;;;;;4986887;28;20077;-72
2022/06/30 06:08:38;;;;;;;6.60;6.00;;;19.70;99.90;;;;;;4971657;28;20053;-72
2022/06/30 06:11:04;;;;;;;7.43;6.50;;;19.80;99.90;;;;;;4987582;28;20046;-72
2022/06/30 06:13:30;;;;;;;7.25;6.22;;;19.80;99.90;;;;;;4971530;28;20085;-72
2022/06/30 06:15:56;;;;;;;7.03;6.32;;;19.90;99.90;;;;;;4972241;28;20080;-71
2022/06/30 06:18:21;;;;;;;7.43;6.63;;;20.00;99.90;;;;;;4989048;28;20559;-72
2022/06/30 06:20:47;;;;;;;7.88;5.97;;;20.00;99.90;;;;;;5002471;28;20241;-72
2022/06/30 06:23:13;;;;;;;8.13;7.30;;;20.10;99.90;;;;;;5004734;28;20172;-72
2022/06/30 06:25:39;;;;;;;6.70;6.10;;;20.20;99.90;;;;;;5002646;28;20548;-72
2022/06/30 06:29:05;;;;;;;7.18;6.35;;;20.30;99.90;;;;;;4987868;28;20042;-72
2022/06/30 06:30:59;;;;;;;7.57;6.22;;;20.40;99.90;;;;;;5001990;28;20580;-72
2022/06/30 06:33:25;;;;;;;8.90;6.65;;;20.40;99.90;;;;;;4986887;28;20137;-72
2022/06/30 06:35:51;;;;;;;7.70;6.97;;;20.50;99.90;;;;;;4987773;28;20037;-72
2022/06/30 06:38:17;;;;;;;10.13;6.97;;;20.50;99.90;;;;;;5000655;28;20046;-72
2022/06/30 06:40:44;;;;;;;7.65;6.50;;;20.70;99.90;;;;;;4972896;28;20053;-72
2022/06/30 06:43:09;;;;;;;7.40;6.45;;;20.70;99.90;;;;;;4986518;28;20049;-72
2022/06/30 06:45:35;;;;;;;8.10;7.10;;;20.80;99.90;;;;;;4984780;28;20433;-72
2022/06/30 06:48:01;;;;;;;8.68;7.88;;;20.90;99.90;;;;;;5003548;28;20122;-72
2022/06/30 06:50:26;;;;;;;7.78;7.05;;;21.00;99.90;;;;;;4986066;28;20089;-72
2022/06/30 06:52:52;;;;;;;8.70;7.38;;;21.10;99.90;;;;;;5002735;28;20071;-72
2022/06/30 06:55:20;;;;;;;8.50;7.07;;;21.20;99.90;;;;;;4982816;28;20099;-72
2022/06/30 06:57:47;;;;;;;9.35;7.55;;;21.30;99.90;;;;;;5004567;28;20180;-72
2022/06/30 07:00:13;;;;;;;7.78;7.07;;;21.40;99.90;;;;;;5002991;28;20064;-72
2022/06/30 07:02:40;;;;;;;8.50;7.65;;;21.50;99.90;;;;;;4999908;28;20054;-72
2022/06/30 07:05:07;;;;;;;8.23;6.88;;;21.60;99.90;;;;;;5001937;28;20046;-72
2022/06/30 07:07:33;;;;;;;9.05;7.00;;;21.60;99.90;;;;;;5004468;28;20096;-72
2022/06/30 07:09:59;;;;;;;8.20;6.97;;;21.70;99.90;;;;;;4990522;28;20050;-70
2022/06/30 07:12:24;;;;;;;8.80;7.22;;;21.80;99.90;;;;;;4986715;28;20052;-72
2022/06/30 07:14:50;;;;;;;9.60;6.88;;;22.00;99.90;;;;;;4991937;28;20038;-72
2022/06/30 07:17:16;;;;;;;8.40;7.50;;;22.10;99.90;;;;;;4986051;28;20045;-72
2022/06/30 07:19:45;;;;;;;8.05;6.50;;;22.20;99.90;;;;;;5007663;28;20413;-72
2022/06/30 07:22:11;;;;;;;7.18;6.57;;;22.30;99.90;;;;;;4985688;28;20187;-72
2022/06/30 07:24:36;;;;;;;8.75;7.20;;;22.40;99.90;;;;;;4974649;28;20124;-71
2022/06/30 07:27:02;;;;;;;7.63;6.93;;;22.50;99.90;;;;;;4971640;28;20516;-72
2022/06/30 07:29:30;;;;;;;7.63;6.82;;;22.60;99.90;;;;;;4974580;28;20073;-73
2022/06/30 07:31:56;;;;;;;9.25;7.78;;;22.70;99.90;;;;;;4987758;28;20441;-72
2022/06/30 07:34:22;;;;;;;8.57;7.75;;;22.80;99.90;;;;;;4973675;28;20076;-72
2022/06/30 07:36:48;;;;;;;8.60;7.75;;;22.90;99.90;;;;;;4991049;28;20080;-72
2022/06/30 07:39:14;;;;;;;8.70;7.90;;;22.90;99.90;;;;;;5007054;28;20041;-72
2022/06/30 07:41:40;;;;;;;9.38;8.35;;;23.00;99.90;;;;;;5005843;28;20200;-72
2022/06/30 07:44:06;;;;;;;8.75;7.60;;;23.10;99.90;;;;;;4990140;28;20045;-72
2022/06/30 07:46:31;;;;;;;8.07;7.28;;;23.20;99.90;;;;;;4974456;28;20058;-72
2022/06/30 07:48:57;;;;;;;9.75;8.27;;;23.30;99.90;;;;;;4991154;28;20123;-73
2022/06/30 07:51:24;;;;;;;9.07;8.10;;;23.50;99.90;;;;;;4988690;28;20046;-72
2022/06/30 07:53:50;;;;;;;9.00;8.15;;;23.60;99.90;;;;;;5004998;28;20579;-70
2022/06/30 07:56:19;;;;;;;10.23;9.20;;;23.70;99.90;;;;;;4989706;28;20053;-71
2022/06/30 07:58:45;;;;;;;9.90;8.82;;;23.80;99.90;;;;;;5006546;28;20049;-72
2022/06/30 08:01:10;;;;;;;10.43;9.32;;;23.90;99.90;;;;;;4989369;28;20049;-72
2022/06/30 08:03:36;;;;;;;10.65;8.82;;;24.00;99.90;;;;;;4968112;28;20144;-72
2022/06/30 08:06:02;;;;;;;11.48;9.60;;;24.10;99.90;;;;;;5003824;28;20045;-71
2022/06/30 08:08:29;;;;;;;10.90;9.80;;;24.10;99.90;;;;;;4987883;28;20504;-72
2022/06/30 08:10:54;;;;;;;11.05;9.95;;;24.20;99.90;;;;;;4988510;28;20115;-70
2022/06/30 08:13:20;;;;;;;12.05;10.80;;;24.30;99.90;;;;;;4945541;28;20987;-72
2022/06/30 08:15:46;;;;;;;11.80;10.55;;;24.40;99.90;;;;;;4971838;28;20049;-72
2022/06/30 08:18:15;;;;;;;11.88;10.75;;;24.50;99.90;;;;;;5004113;28;20034;-72
2022/06/30 08:20:41;;;;;;;10.82;9.68;;;24.60;99.90;;;;;;5003214;28;20107;-72
2022/06/30 08:23:07;;;;;;;11.07;9.98;;;24.80;99.90;;;;;;5002914;28;20045;-72
2022/06/30 08:25:33;;;;;;;12.48;10.88;;;24.90;99.90;;;;;;4982304;28;20050;-71
2022/06/30 08:27:59;;;;;;;12.25;10.85;;;25.10;99.90;;;;;;5004832;28;20116;-72
2022/06/30 08:30:24;;;;;;;10.93;9.73;;;25.10;99.90;;;;;;5003835;28;20080;-72
2022/06/30 08:32:50;;;;;;;9.80;8.90;;;25.30;99.90;;;;;;5004004;28;20038;-72
2022/06/30 08:35:16;;;;;;;11.25;9.85;;;25.40;99.90;;;;;;5003418;28;20037;-72
2022/06/30 08:37:42;;;;;;;10.88;9.77;;;25.50;99.90;;;;;;5004308;28;20060;-72
2022/06/30 08:42:53;;;;;;;11.05;10.13;;;25.70;99.90;;;;;;5005060;28;20100;-72
2022/06/30 08:45:20;;;;;;;11.45;10.35;;;25.80;99.90;;;;;;4988443;28;20042;-72
2022/06/30 08:47:47;;;;;;;12.23;11.02;;;25.90;99.90;;;;;;4985550;28;20095;-73
2022/06/30 08:50:15;;;;;;;10.85;9.75;;;26.00;99.90;;;;;;4988444;28;20045;-72
2022/06/30 08:52:45;;;;;;;12.00;10.90;;;26.00;99.90;;;;;;5004650;28;20075;-72
2022/06/30 08:55:14;;;;;;;11.77;10.77;;;26.20;99.90;;;;;;4987267;28;20778;-72
2022/06/30 08:57:45;;;;;;;12.40;11.13;;;26.20;99.90;;;;;;4996929;28;20066;-72
2022/06/30 09:00:13;;;;;;;13.30;12.10;;;26.20;99.90;;;;;;4987262;28;20057;-72
2022/06/30 09:02:42;;;;;;;13.13;11.93;;;26.30;99.90;;;;;;4986820;28;20045;-72
2022/06/30 09:05:09;;;;;;;12.95;11.80;;;26.30;99.90;;;;;;4963748;28;20050;-72
2022/06/30 09:07:35;;;;;;;12.10;10.30;;;26.30;99.90;;;;;;4986146;28;20046;-75
2022/06/30 09:10:07;;;;;;;12.52;11.43;;;26.40;99.90;;;;;;4987738;28;20033;-75
2022/06/30 09:12:33;;;;;;;12.77;11.43;;;26.70;99.90;;;;;;5002045;28;20042;-78
2022/06/30 09:15:00;;;;;;;12.40;11.13;;;27.00;99.90;;;;;;5003024;28;20472;-77
2022/06/30 09:17:28;;;;;;;13.38;12.18;;;27.10;99.90;;;;;;4971657;28;20045;-76
2022/06/30 09:20:01;;;;;;;12.18;11.07;;;27.20;99.90;;;;;;4988028;28;20517;-74
2022/06/30 09:22:34;;;;;;;13.32;12.13;;;27.20;99.90;;;;;;4986160;28;20046;-76
2022/06/30 09:25:11;;;;;;;14.48;13.02;;;27.30;99.90;;;;;;5001986;28;20069;-76
2022/06/30 09:27:43;;;;;;;13.77;12.57;;;27.30;99.90;;;;;;4985417;28;20067;-75
2022/06/30 09:30:14;;;;;;;12.13;10.93;;;27.40;99.90;;;;;;4987573;28;20145;-76
2022/06/30 09:33:06;;;;;;;12.25;11.15;;;27.40;99.90;;;;;;5018780;28;20155;-76
2022/06/30 09:35:33;;;;;;;12.13;10.93;;;27.50;99.90;;;;;;4986396;28;20068;-75
2022/06/30 09:38:12;;;;;;;11.48;10.48;;;27.50;99.90;;;;;;4987872;28;20034;-76
2022/06/30 09:41:01;;;;;;;12.52;11.30;;;27.60;99.90;;;;;;5002238;28;20068;-76
2022/06/30 09:43:37;;;;;;;13.68;12.27;;;27.70;99.90;;;;;;4987944;28;20081;-75
2022/06/30 09:46:06;;;;;;;12.65;11.35;;;27.70;99.90;;;;;;4973422;28;20054;-76
2022/06/30 09:48:33;;;;;;;13.70;12.43;;;27.80;99.90;;;;;;4987170;28;20104;-76
2022/06/30 09:51:00;;;;;;;12.35;11.25;;;27.80;99.90;;;;;;5003213;28;20046;-75
2022/06/30 09:53:26;;;;;;;13.13;11.85;;;27.70;99.90;;;;;;5000746;28;20050;-75
2022/06/30 09:55:52;;;;;;;12.48;10.57;;;27.60;99.90;;;;;;4983766;28;20456;-75
2022/06/30 09:58:36;;;;;;;10.55;9.55;;;27.50;99.90;;;;;;4986871;28;20041;-75
2022/06/30 10:01:20;;;;;;;10.65;9.65;;;27.40;99.90;;;;;;4986567;28;20049;-76
2022/06/30 10:03:59;;;;;;;12.52;11.23;;;27.50;99.90;;;;;;4979515;28;20045;-76
2022/06/30 10:06:28;;;;;;;11.32;10.20;;;27.60;99.90;;;;;;5000333;28;20049;-80
2022/06/30 10:08:55;;;;;;;10.40;9.40;;;27.80;99.90;;;;;;4985503;28;20042;-75
2022/06/30 10:11:23;;;;;;;10.38;9.32;;;27.90;99.90;;;;;;4985366;28;20073;-76
2022/06/30 10:13:49;;;;;;;9.88;8.88;;;28.10;99.90;;;;;;5002495;28;20097;-76
2022/06/30 10:16:17;;;;;;;10.98;9.90;;;28.20;99.90;;;;;;5002619;28;20069;-76
2022/06/30 10:18:43;;;;;;;10.55;9.60;;;28.30;99.90;;;;;;4982233;28;20835;-75
2022/06/30 10:21:10;;;;;;;10.73;9.70;;;28.40;99.90;;;;;;4985443;28;20049;-75
2022/06/30 10:23:36;;;;;;;11.65;9.18;;;28.50;97.90;;;;;;4986927;28;20053;-76
2022/06/30 10:26:04;;;;;;;10.15;9.13;;;28.60;99.00;;;;;;4983646;28;20548;-75
2022/06/30 10:28:30;;;;;;;8.98;7.18;;;28.70;98.30;;;;;;4985500;28;20092;-76
2022/06/30 10:31:05;;;;;;;7.80;5.90;;;28.80;97.80;;;;;;4985247;28;20374;-75
2022/06/30 10:34:09;;;;;;;7.70;5.60;;;28.80;94.00;;;;;;4983228;28;20045;-75
2022/06/30 10:36:43;;;;;;;6.15;4.97;;;28.70;94.40;;;;;;4963209;28;20093;-76
2022/06/30 10:39:36;;;;;;;6.68;4.80;;;28.80;93.20;;;;;;4994643;28;20073;-75
2022/06/30 10:42:05;;;;;;;7.65;5.30;;;29.00;94.20;;;;;;5001541;28;20077;-76
2022/06/30 10:44:32;;;;;;;7.65;5.25;;;29.20;96.00;;;;;;4970171;28;20062;-76
2022/06/30 10:46:58;;;;;;;6.25;5.13;;;29.30;95.40;;;;;;5000757;28;20057;-76
2022/06/30 10:49:26;;;;;;;5.57;4.53;;;29.20;95.40;;;;;;4985693;28;20404;-76
2022/06/30 10:51:56;;;;;;;7.80;6.05;;;28.90;95.40;;;;;;4982265;28;20042;-76
2022/06/30 10:54:30;;;;;;;8.40;5.70;;;28.60;93.90;;;;;;4985671;28;20042;-76
2022/06/30 10:56:59;;;;;;;6.32;4.60;;;28.30;94.60;;;;;;4986252;28;20038;-76
2022/06/30 10:59:37;;;;;;;6.15;4.53;;;28.10;94.90;;;;;;4984588;28;20493;-76
2022/06/30 11:02:09;;;;;;;8.13;5.43;;;27.90;94.90;;;;;;4982753;28;20125;-76
2022/06/30 11:04:45;;;;;;;7.70;5.35;;;27.70;93.70;;;;;;4987048;28;20505;-76
2022/06/30 11:07:23;;;;;;;10.25;5.20;;;27.50;94.70;;;;;;5002531;28;20400;-76
2022/06/30 11:09:52;;;;;;;8.07;5.32;;;27.40;94.90;;;;;;5000814;28;20124;-75
2022/06/30 11:12:29;;;;;;;6.07;5.30;;;27.50;95.20;;;;;;4983995;28;20129;-75
2022/06/30 11:14:57;;;;;;;8.88;5.90;;;27.50;95.50;;;;;;5001695;28;20052;-75
2022/06/30 11:17:25;;;;;;;7.72;6.00;;;27.80;94.50;;;;;;4986409;28;20054;-76
2022/06/30 11:20:09;;;;;;;7.85;6.28;;;28.10;95.80;;;;;;4985029;28;20157;-76
2022/06/30 11:22:36;;;;;;;8.10;6.32;;;28.40;94.50;;;;;;4985334;28;20129;-76
2022/06/30 11:27:59;;;;;;;6.60;4.68;;;28.60;95.40;;;;;;5001011;28;20493;-76
2022/06/30 11:30:30;;;;;;;11.15;5.30;;;28.60;96.80;;;;;;5002646;28;20061;-76
2022/06/30 11:33:13;;;;;;;7.05;4.43;;;28.90;95.60;;;;;;5000812;28;20044;-76
2022/06/30 11:35:39;;;;;;;9.00;4.15;;;29.00;89.70;;;;;;5001596;28;20077;-76
2022/06/30 11:38:06;;;;;;;8.20;5.53;;;29.20;89.20;;;;;;4969226;28;20076;-77
2022/06/30 11:40:33;;;;;;;8.15;7.28;;;29.30;91.30;;;;;;5001586;28;20779;-76
2022/06/30 11:42:58;;;;;;;8.98;7.22;;;29.40;95.50;;;;;;4983165;28;20136;-76
2022/06/30 11:45:25;;;;;;;7.00;6.30;;;29.50;93.70;;;;;;4964248;28;20061;-77
2022/06/30 11:47:56;;;;;;;7.78;6.95;;;29.60;94.70;;;;;;4982491;28;20392;-77
2022/06/30 11:50:23;;;;;;;8.27;6.38;;;29.80;96.50;;;;;;4983232;28;20559;-76
2022/06/30 11:52:51;;;;;;;8.52;6.10;;;29.90;94.20;;;;;;4984238;28;20536;-75
2022/06/30 11:55:18;;;;;;;6.53;5.70;;;29.80;89.30;;;;;;4988279;28;20045;-75
2022/06/30 11:57:47;;;;;;;7.65;5.95;;;29.60;91.10;;;;;;4971154;28;20049;-73
2022/06/30 12:00:21;;;;;;;7.32;6.55;;;29.30;93.30;;;;;;5000367;28;20515;-72
2022/06/30 12:02:48;;;;;;;9.55;6.22;;;28.90;92.90;;;;;;5002487;28;20133;-72
2022/06/30 12:05:17;;;;;;;9.93;6.30;;;28.80;94.20;;;;;;4987399;28;20046;-72
2022/06/30 12:07:43;;;;;;;8.98;6.65;;;28.90;96.40;;;;;;4998681;28;20102;-72
2022/06/30 12:10:12;;;;;;;9.13;7.80;;;29.10;95.90;;;;;;5004057;28;20053;-72
2022/06/30 12:12:38;;;;;;;9.50;7.75;;;29.40;94.40;;;;;;5000350;28;20516;-72
2022/06/30 12:15:12;;;;;;;10.15;7.90;;;29.40;91.10;;;;;;4985122;28;20064;-72
2022/06/30 12:17:41;;;;;;;9.65;8.27;;;29.20;89.40;;;;;;5005832;28;20065;-72
2022/06/30 12:20:09;;;;;;;8.57;7.22;;;28.90;92.10;;;;;;4987967;28;20046;-72
2022/06/30 12:22:43;;;;;;;7.15;6.45;;;29.00;92.10;;;;;;4984808;28;20058;-72
2022/06/30 12:25:11;;;;;;;8.02;5.18;;;29.10;88.30;;;;;;5003710;28;20045;-72
2022/06/30 12:27:38;;;;;;;7.43;4.03;;;29.10;83.60;;;;;;5004421;28;20871;-71
2022/06/30 12:30:09;;;;;;;9.77;3.90;;;29.20;85.60;;;;;;4997677;28;20042;-72
2022/06/30 12:32:35;;;;;;;7.10;3.85;;;29.20;77.80;;;;;;5004367;28;20132;-73
2022/06/30 12:35:04;;;;;;;6.63;3.45;;;29.00;73.70;;;;;;4973733;28;20630;-72
2022/06/30 12:37:39;;;;;;;7.30;4.20;;;28.70;76.90;;;;;;5002221;28;20125;-72
2022/06/30 12:40:08;;;;;;;6.70;3.28;;;28.70;89.20;;;;;;5007526;28;20405;-72
2022/06/30 12:42:49;;;;;;;5.72;2.75;;;28.80;86.50;;;;;;4989215;28;20560;-72
2022/06/30 12:45:44;;;;;;;5.38;2.47;;;28.90;87.10;;;;;;4990246;28;20084;-72
2022/06/30 12:48:11;;;;;;;4.35;2.35;;;29.00;85.50;;;;;;5001991;28;20508;-72
2022/06/30 12:50:39;;;;;;;5.03;2.50;;;29.00;82.50;;;;;;5002875;28;20459;-72
2022/06/30 12:53:21;;;;;;;5.47;2.30;;;28.90;82.60;;;;;;4970415;28;20061;-72
2022/06/30 12:56:00;;;;;;;4.22;2.90;;;28.90;82.80;;;;;;5004366;28;20050;-72
2022/06/30 12:58:26;;;;;;;6.55;2.53;;;28.90;86.20;;;;;;4984642;28;20097;-72
2022/06/30 13:01:01;;;;;;;7.53;2.38;;;28.80;82.70;;;;;;5005876;28;20532;-72
2022/06/30 13:03:27;;;;;;;6.32;3.50;;;28.80;78.60;;;;;;4984910;28;20064;-72
2022/06/30 13:05:53;;;;;;;8.45;5.53;;;28.80;85.50;;;;;;4986261;28;20496;-72